Elkhart Lake, Wisconsin
Current Conditions -  °F | °C
As of 7:23 AM on Thursday 27 Nov 2014 (Local Time) from KSBM Reporting Station
Overcast Overcast  
Wind Chill: -12°   Ceiling: 1200
Heat Index: -6°   Visibility: 10mi
Dew Point: -8°   Wind: 10mph
Humidity: 85%   Direction: 320°NW
Pressure: 30.26"   Gusts: NA
Location:  43.83°N, 88.02°W
Report Text: KSBM 271323Z AUTO 32009KT 10SM BKN012 OVC017 M06/M08 A3026 RMK AO2 T10561078
Loading
Personal Weather Stations






























Interactive Weather Map New forecast layout! Learn more

10-Day Weather Forecast

Advertisements
Track Severe Weather on mobile